Time;durP1;ratioP1;P1;durP2;ratioP2;P2;SDS_P1;SDS_P2;PMS_P1;PMS_P2;Temp;Humidity;BMP_temperature;BMP_pressure;BME280_temperature;BME280_humidity;BME280_pressure;Samples;Min_cycle;Max_cycle;Signal;HPM_P1;HPM_P2
2023/03/06 00:00:33;;;;;;;14.50;7.53;;;;;;;5.02;46.58;99161.91;7710078;32;39859;-81
2023/03/06 00:04:49;;;;;;;13.10;6.50;;;;;;;5.11;45.89;99156.88;7710287;32;40507;-82
2023/03/06 00:09:06;;;;;;;13.85;7.57;;;;;;;5.07;45.77;99161.16;7709805;32;37843;-81
2023/03/06 00:13:23;;;;;;;15.73;7.50;;;;;;;5.31;45.83;99155.50;7710019;32;37452;-81
2023/03/06 00:17:39;;;;;;;14.00;7.72;;;;;;;4.99;46.62;99175.91;7709963;32;39268;-82
2023/03/06 00:21:56;;;;;;;16.95;7.30;;;;;;;5.12;46.44;99165.81;7709675;32;40813;-81
2023/03/06 00:26:12;;;;;;;17.08;7.65;;;;;;;4.90;46.75;99155.81;7708978;32;37796;-83
2023/03/06 00:30:28;;;;;;;13.30;6.40;;;;;;;4.88;46.87;99160.63;7709532;32;37612;-82
2023/03/06 00:34:47;;;;;;;9.85;6.18;;;;;;;5.06;45.51;99163.03;7709531;32;40150;-81
2023/03/06 00:39:04;;;;;;;12.63;6.93;;;;;;;4.87;46.06;99146.31;7709332;32;39982;-81
2023/03/06 00:43:20;;;;;;;13.65;6.55;;;;;;;4.87;46.12;99150.91;7713024;32;36720;-82
2023/03/06 00:47:37;;;;;;;18.62;7.37;;;;;;;4.98;45.69;99146.44;7712884;32;37471;-81
2023/03/06 00:51:53;;;;;;;14.07;6.03;;;;;;;4.92;45.53;99142.88;7712557;32;39870;-81
2023/03/06 00:56:09;;;;;;;13.05;6.50;;;;;;;4.75;45.82;99137.50;7712807;32;40505;-81
2023/03/06 01:00:25;;;;;;;14.15;6.68;;;;;;;4.75;46.11;99129.41;7711682;32;37955;-81
2023/03/06 01:04:42;;;;;;;12.45;7.03;;;;;;;4.96;45.07;99121.56;7712742;32;37208;-81
2023/03/06 01:08:58;;;;;;;10.77;6.60;;;;;;;4.87;45.22;99127.41;7712341;32;39335;-81
2023/03/06 01:13:14;;;;;;;10.93;5.90;;;;;;;5.02;45.27;99113.28;7712535;32;39866;-82
2023/03/06 01:17:30;;;;;;;10.65;5.95;;;;;;;4.74;46.09;99119.66;7712353;32;38565;-82
2023/03/06 01:21:46;;;;;;;11.82;6.35;;;;;;;4.86;45.97;99112.28;7712380;32;37976;-82
2023/03/06 01:26:03;;;;;;;10.00;5.07;;;;;;;5.09;45.56;99105.00;7712419;32;39370;-81
2023/03/06 01:30:20;;;;;;;8.95;5.57;;;;;;;4.92;46.02;99104.25;7712395;32;39619;-81
2023/03/06 01:34:36;;;;;;;11.00;5.85;;;;;;;5.01;45.63;99108.13;7711954;32;39034;-82
2023/03/06 01:38:52;;;;;;;11.57;6.50;;;;;;;5.05;45.69;99110.09;7712096;32;37390;-82
2023/03/06 01:43:33;;;;;;;12.75;6.82;;;;;;;5.02;45.82;99094.37;7712272;32;39359;-82
2023/03/06 01:47:49;;;;;;;12.45;6.45;;;;;;;4.82;46.37;99094.94;7712097;32;41116;-82
2023/03/06 01:52:17;;;;;;;12.82;6.62;;;;;;;5.14;45.33;99093.41;7711922;32;37543;-82
2023/03/06 01:56:34;;;;;;;11.85;6.37;;;;;;;5.03;45.63;99096.00;7710977;32;37233;-82
2023/03/06 02:00:50;;;;;;;11.25;6.60;;;;;;;4.95;45.72;99095.63;7711995;32;40071;-82
2023/03/06 02:05:07;;;;;;;11.95;6.10;;;;;;;5.09;45.89;99094.19;7711427;32;39393;-81
2023/03/06 02:09:28;;;;;;;13.27;6.07;;;;;;;4.93;46.19;99095.88;7711549;32;37958;-81
2023/03/06 02:13:45;;;;;;;11.98;6.30;;;;;;;4.84;46.10;99090.09;7711967;32;38719;-82
2023/03/06 02:18:01;;;;;;;13.73;6.65;;;;;;;5.03;45.80;99090.59;7711564;32;39931;-81
2023/03/06 02:22:18;;;;;;;11.35;5.97;;;;;;;4.89;46.06;99089.34;7711759;32;39958;-82
2023/03/06 02:26:36;;;;;;;10.90;6.43;;;;;;;4.95;46.01;99096.47;7711619;32;37688;-82
2023/03/06 02:30:54;;;;;;;14.10;6.57;;;;;;;4.94;46.13;99091.31;7711545;32;37944;-82
2023/03/06 02:35:24;;;;;;;11.05;6.30;;;;;;;4.85;46.18;99089.03;7711791;32;38246;-81
2023/03/06 02:39:46;;;;;;;12.10;6.50;;;;;;;4.88;45.86;99093.94;7711617;32;39868;-83
2023/03/06 02:44:03;;;;;;;9.15;5.57;;;;;;;4.79;46.30;99084.63;7710403;32;38748;-82
2023/03/06 02:48:20;;;;;;;13.73;6.47;;;;;;;5.09;45.74;99094.19;7710336;32;37568;-82
2023/03/06 02:52:36;;;;;;;12.15;6.62;;;;;;;4.98;46.19;99087.00;7710354;32;39378;-81
2023/03/06 02:56:52;;;;;;;15.73;6.70;;;;;;;4.97;46.56;99093.50;7711353;32;40951;-82
2023/03/06 03:01:08;;;;;;;12.13;6.75;;;;;;;5.11;46.25;99094.75;7710164;32;37789;-82
2023/03/06 03:05:24;;;;;;;11.77;6.20;;;;;;;4.96;46.72;99084.56;7711329;32;37424;-82
2023/03/06 03:09:40;;;;;;;11.35;6.28;;;;;;;4.95;47.17;99085.66;7710692;32;39454;-81
2023/03/06 03:13:57;;;;;;;14.00;7.05;;;;;;;4.92;47.15;99088.03;7711260;32;40926;-82
2023/03/06 03:18:13;;;;;;;10.05;5.82;;;;;;;4.90;47.34;99085.59;7710802;32;38012;-82
2023/03/06 03:22:29;;;;;;;10.98;5.87;;;;;;;4.94;47.29;99075.91;7710944;32;36846;-82
2023/03/06 03:26:45;;;;;;;10.73;6.53;;;;;;;5.00;47.24;99083.00;7710957;32;40200;-82
2023/03/06 03:31:06;;;;;;;9.88;5.90;;;;;;;5.15;46.81;99087.75;7711008;32;40793;-82
2023/03/06 03:35:22;;;;;;;11.73;6.20;;;;;;;4.94;47.49;99081.31;7710926;32;37814;-81
2023/03/06 03:39:38;;;;;;;11.00;6.32;;;;;;;4.77;47.97;99081.38;7710587;32;37261;-82
2023/03/06 03:43:54;;;;;;;10.18;6.18;;;;;;;4.96;47.63;99078.34;7710605;32;39377;-82
2023/03/06 03:48:11;;;;;;;11.40;6.37;;;;;;;4.87;47.86;99076.09;7709779;32;40987;-82
2023/03/06 03:52:27;;;;;;;13.30;6.35;;;;;;;5.18;46.85;99075.62;7710315;32;38962;-82
2023/03/06 03:56:43;;;;;;;11.95;6.25;;;;;;;4.81;47.62;99082.50;7710510;32;36945;-82
2023/03/06 04:01:00;;;;;;;11.60;5.87;;;;;;;4.65;48.22;99080.66;7710373;32;39339;-82
2023/03/06 04:05:16;;;;;;;13.70;6.10;;;;;;;4.91;47.78;99071.00;7710005;32;40063;-82
2023/03/06 04:09:32;;;;;;;17.12;7.95;;;;;;;4.85;48.10;99078.22;7709787;32;37921;-82
2023/03/06 04:13:49;;;;;;;12.65;6.45;;;;;;;4.91;48.16;99070.19;7711075;32;37071;-82
2023/03/06 04:18:05;;;;;;;13.57;7.43;;;;;;;4.83;48.67;99079.53;7713236;32;39336;-81
2023/03/06 04:22:21;;;;;;;13.20;6.28;;;;;;;4.87;48.47;99076.09;7713113;32;39562;-82
2023/03/06 04:26:37;;;;;;;11.82;6.10;;;;;;;4.94;48.66;99075.09;7713084;32;38453;-81
2023/03/06 04:30:53;;;;;;;11.32;5.75;;;;;;;4.80;48.98;99069.25;7712857;32;37398;-82
2023/03/06 04:35:10;;;;;;;11.93;6.18;;;;;;;5.00;48.60;99071.37;7713113;32;40095;-81
2023/03/06 04:39:26;;;;;;;13.35;6.28;;;;;;;4.65;49.98;99067.16;7712804;32;39878;-82
2023/03/06 04:43:42;;;;;;;13.38;5.93;;;;;;;4.78;49.65;99072.22;7712921;32;37956;-83
2023/03/06 04:47:58;;;;;;;13.00;5.75;;;;;;;4.87;49.36;99070.69;7712848;32;37211;-83
2023/03/06 04:52:14;;;;;;;12.65;6.22;;;;;;;4.95;49.28;99068.59;7712987;32;39666;-83
2023/03/06 04:56:33;;;;;;;10.02;6.00;;;;;;;4.83;49.41;99064.16;7733439;32;40800;-82
2023/03/06 05:00:49;;;;;;;13.13;6.37;;;;;;;5.10;48.03;99052.56;7718361;32;36950;-83
2023/03/06 05:05:05;;;;;;;11.85;5.80;;;;;;;4.86;48.18;99055.56;7712634;32;36849;-82
2023/03/06 05:09:22;;;;;;;8.95;5.45;;;;;;;5.01;47.64;99054.09;7712327;32;40217;-84
2023/03/06 05:13:38;;;;;;;10.85;5.95;;;;;;;5.03;47.62;99060.88;7712804;32;39862;-86
2023/03/06 05:17:55;;;;;;;15.50;6.55;;;;;;;5.02;47.75;99056.56;7711817;32;38546;-84
2023/03/06 05:22:11;;;;;;;12.93;5.97;;;;;;;4.97;49.17;99048.37;7711024;32;37662;-83
2023/03/06 05:26:27;;;;;;;13.62;6.50;;;;;;;5.03;49.43;99051.97;7711084;32;39132;-84
2023/03/06 05:30:44;;;;;;;12.13;6.47;;;;;;;5.01;48.92;99060.31;7710579;32;40977;-83
2023/03/06 05:35:00;;;;;;;13.25;6.43;;;;;;;5.31;47.76;99052.78;7711941;32;37839;-83
2023/03/06 05:39:16;;;;;;;11.15;6.60;;;;;;;5.19;47.94;99056.47;7712303;32;37886;-82
2023/03/06 05:43:32;;;;;;;13.15;6.85;;;;;;;4.89;49.23;99057.75;7712135;32;39385;-81
2023/03/06 05:47:49;;;;;;;12.40;6.62;;;;;;;4.66;49.60;99064.22;7712319;32;40184;-84
2023/03/06 05:52:06;;;;;;;12.23;6.32;;;;;;;4.94;49.02;99067.78;7712043;32;37789;-82
2023/03/06 05:56:22;;;;;;;12.48;6.55;;;;;;;4.85;49.63;99066.62;7712260;32;37318;-87
2023/03/06 06:00:38;;;;;;;13.85;6.80;;;;;;;5.00;49.51;99069.50;7712192;32;39390;-83
2023/03/06 06:04:55;;;;;;;10.77;6.55;;;;;;;4.95;49.67;99074.00;7710905;32;40813;-84
2023/03/06 06:09:11;;;;;;;12.15;6.40;;;;;;;4.92;50.07;99066.44;7711414;32;38558;-83
2023/03/06 06:13:28;;;;;;;14.65;7.15;;;;;;;5.13;49.78;99072.88;7711619;32;37934;-84
2023/03/06 06:17:44;;;;;;;12.20;6.95;;;;;;;4.56;51.73;99069.50;7711047;32;40100;-83
2023/03/06 06:22:02;;;;;;;15.20;7.22;;;;;;;5.01;51.14;99078.41;7711638;32;39913;-82
2023/03/06 06:26:19;;;;;;;17.98;7.00;;;;;;;4.58;52.90;99082.75;7711323;32;38659;-82
2023/03/06 06:30:36;;;;;;;14.40;7.00;;;;;;;4.98;52.31;99087.81;7711270;32;36891;-85
2023/03/06 06:34:52;;;;;;;13.75;7.43;;;;;;;4.26;54.12;99091.47;7711438;32;40049;-82
2023/03/06 06:39:10;;;;;;;13.85;7.20;;;;;;;4.06;55.47;99100.88;7710272;32;40830;-81
2023/03/06 06:43:28;;;;;;;15.38;7.62;;;;;;;4.24;55.73;99094.44;7711014;32;40220;-83
2023/03/06 06:47:44;;;;;;;13.38;7.22;;;;;;;4.11;56.41;99092.88;7710830;32;37300;-81
2023/03/06 06:52:01;;;;;;;15.10;6.60;;;;;;;4.10;56.93;99099.31;7711224;32;40056;-82
2023/03/06 06:56:17;;;;;;;16.70;7.70;;;;;;;4.25;56.72;99095.25;7711155;32;39611;-83
2023/03/06 07:00:33;;;;;;;13.75;7.12;;;;;;;4.08;57.45;99100.63;7711051;32;37938;-82
2023/03/06 07:04:50;;;;;;;15.75;7.55;;;;;;;3.99;59.14;99105.62;7711132;32;37983;-83
2023/03/06 07:09:21;;;;;;;18.45;8.18;;;;;;;4.39;56.92;99101.91;7711110;32;39917;-84
2023/03/06 07:13:37;;;;;;;14.50;6.97;;;;;;;4.32;57.51;99103.97;7711344;32;41338;-84
2023/03/06 07:17:53;;;;;;;15.88;8.00;;;;;;;4.60;56.75;99110.31;7698621;32;333091;-85
2023/03/06 07:22:10;;;;;;;15.98;7.72;;;;;;;4.66;57.19;99112.03;7709007;32;37312;-84
2023/03/06 07:26:26;;;;;;;15.70;7.40;;;;;;;4.48;57.28;99124.75;7710454;32;39275;-86
2023/03/06 07:30:43;;;;;;;18.67;8.32;;;;;;;4.94;55.92;99118.31;7710240;32;39872;-84
2023/03/06 07:34:59;;;;;;;19.77;10.68;;;;;;;4.96;56.81;99125.09;7710543;32;37491;-84
2023/03/06 07:39:34;;;;;;;15.95;7.70;;;;;;;5.00;57.32;99128.09;7710737;32;37198;-84
2023/03/06 07:43:50;;;;;;;15.88;8.18;;;;;;;5.08;56.62;99138.47;7709922;32;40261;-85
2023/03/06 07:48:07;;;;;;;15.77;7.37;;;;;;;4.93;57.22;99130.16;7710318;32;39952;-84
2023/03/06 07:52:23;;;;;;;14.45;7.62;;;;;;;5.09;57.03;99137.41;7709604;32;38558;-84
2023/03/06 07:56:39;;;;;;;15.48;7.57;;;;;;;4.99;57.56;99142.69;7709205;32;36936;-83
2023/03/06 08:00:55;;;;;;;15.57;8.32;;;;;;;4.99;57.20;99135.41;7710367;32;39367;-83
2023/03/06 08:05:14;;;;;;;18.15;8.55;;;;;;;5.06;56.83;99133.31;7710438;32;40132;-83
2023/03/06 08:09:30;;;;;;;13.52;6.72;;;;;;;5.26;56.67;99138.16;7710367;32;36654;-83
2023/03/06 08:13:47;;;;;;;18.67;8.38;;;;;;;5.16;56.70;99138.03;7709993;32;37883;-83
2023/03/06 08:18:03;;;;;;;12.68;7.15;;;;;;;5.11;57.24;99146.09;7708512;32;39375;-84
2023/03/06 08:22:20;;;;;;;16.80;7.87;;;;;;;5.15;56.62;99139.09;7709838;32;39972;-84
2023/03/06 08:26:36;;;;;;;17.92;8.50;;;;;;;5.22;57.18;99138.91;7709767;32;37785;-84
2023/03/06 08:30:52;;;;;;;15.68;7.95;;;;;;;5.27;57.20;99147.87;7709572;32;37054;-85
2023/03/06 08:35:13;;;;;;;12.88;7.28;;;;;;;5.34;57.33;99146.87;7709519;32;39407;-84
2023/03/06 08:39:30;;;;;;;15.70;8.95;;;;;;;5.32;58.16;99136.31;7708219;32;40751;-85
2023/03/06 08:43:47;;;;;;;19.35;9.00;;;;;;;5.55;57.68;99137.09;7708091;32;37888;-84
2023/03/06 08:48:03;;;;;;;13.68;8.52;;;;;;;5.67;57.18;99142.38;7691496;32;37332;-84
2023/03/06 08:52:19;;;;;;;18.73;10.23;;;;;;;5.36;58.39;99137.44;7708783;32;38988;-84
2023/03/06 08:56:35;;;;;;;20.05;9.98;;;;;;;5.62;57.91;99141.25;7708730;32;40552;-84
2023/03/06 09:00:51;;;;;;;14.50;8.50;;;;;;;5.48;58.67;99140.00;7710234;32;37836;-83
2023/03/06 09:05:10;;;;;;;14.93;7.35;;;;;;;5.59;58.16;99135.53;7710967;32;37015;-84
2023/03/06 09:09:26;;;;;;;18.20;8.20;;;;;;;5.49;58.58;99136.25;7710946;32;39032;-86
2023/03/06 09:13:43;;;;;;;17.02;7.90;;;;;;;5.49;58.64;99128.12;7712726;32;40795;-85
2023/03/06 09:17:59;;;;;;;18.37;8.60;;;;;;;5.53;58.92;99134.66;7712586;32;38908;-85
2023/03/06 09:22:15;;;;;;;17.62;8.40;;;;;;;5.29;59.89;99128.72;7712487;32;36974;-85
2023/03/06 09:26:31;;;;;;;13.90;8.15;;;;;;;5.56;59.30;99130.63;7712614;32;39259;-85
2023/03/06 09:31:05;;;;;;;16.35;8.30;;;;;;;5.79;58.51;99111.38;7712636;32;40015;-84
2023/03/06 09:35:21;;;;;;;13.38;7.55;;;;;;;5.51;59.57;99115.16;7712507;32;39511;-84
2023/03/06 09:39:38;;;;;;;15.93;8.27;;;;;;;5.60;59.33;99115.53;7712130;32;38013;-84
2023/03/06 09:44:07;;;;;;;17.02;8.25;;;;;;;5.68;58.82;99122.38;7708422;32;39278;-82
2023/03/06 09:48:36;;;;;;;17.17;9.07;;;;;;;5.63;59.51;99123.94;7710666;32;39797;-84
2023/03/06 09:53:10;;;;;;;15.30;8.10;;;;;;;5.70;59.48;99115.63;7711909;32;37738;-84
2023/03/06 09:57:30;;;;;;;21.12;9.68;;;;;;;5.52;60.28;99130.31;7710026;32;37281;-85
2023/03/06 10:02:17;;;;;;;18.00;9.07;;;;;;;5.66;59.48;99125.31;7708466;32;39888;-86
2023/03/06 10:06:46;;;;;;;19.75;9.63;;;;;;;5.41;60.70;99120.47;7711345;32;39977;-84
2023/03/06 10:11:08;;;;;;;20.35;10.75;;;;;;;5.67;59.88;99118.81;7709753;32;38629;-86
2023/03/06 10:15:31;;;;;;;18.23;10.18;;;;;;;5.74;59.84;99105.09;7711269;32;37476;-85
2023/03/06 10:19:48;;;;;;;17.00;9.57;;;;;;;6.12;58.47;99097.88;7710483;32;39139;-85
2023/03/06 10:24:24;;;;;;;20.40;10.63;;;;;;;5.99;59.46;99099.94;7709385;32;40177;-86
2023/03/06 10:28:52;;;;;;;18.55;10.23;;;;;;;6.15;58.85;99089.22;7707292;32;38585;-85
2023/03/06 10:33:32;;;;;;;19.33;10.43;;;;;;;5.75;60.04;99090.53;7710041;32;37167;-84
2023/03/06 10:37:57;;;;;;;22.10;11.38;;;;;;;6.14;58.62;99087.59;7709413;32;39263;-85
2023/03/06 10:42:13;;;;;;;20.85;11.07;;;;;;;6.27;58.69;99086.34;7710717;32;40614;-84
2023/03/06 10:46:43;;;;;;;23.50;10.10;;;;;;;6.37;58.34;99070.97;7710302;32;37893;-85
2023/03/06 10:51:23;;;;;;;21.08;10.63;;;;;;;6.47;57.86;99059.41;7707594;32;37995;-83
2023/03/06 10:55:39;;;;;;;20.10;11.07;;;;;;;6.40;57.04;99056.13;7707029;32;39873;-84
2023/03/06 11:00:04;;;;;;;21.33;11.98;;;;;;;6.80;55.69;99045.75;7709342;32;40065;-84
2023/03/06 11:04:34;;;;;;;21.35;11.27;;;;;;;6.94;57.38;99030.59;7710848;32;37799;-83
2023/03/06 11:08:50;;;;;;;17.40;10.30;;;;;;;7.01;57.66;99025.75;7710920;32;37288;-85
2023/03/06 11:13:23;;;;;;;22.35;10.77;;;;;;;7.24;55.26;99018.19;7710931;32;40095;-84
2023/03/06 11:17:51;;;;;;;22.27;11.40;;;;;;;6.72;54.90;99015.34;7709556;32;39699;-84
2023/03/06 11:22:17;;;;;;;19.98;10.05;;;;;;;6.90;55.66;99003.22;7709516;32;38349;-86
2023/03/06 11:27:24;;;;;;;21.08;10.15;;;;;;;7.15;55.12;98993.53;7709715;32;38179;-85
2023/03/06 11:32:04;;;;;;;21.08;10.52;;;;;;;7.28;53.15;98984.88;7706832;32;39511;-85
2023/03/06 11:36:36;;;;;;;19.05;10.50;;;;;;;7.02;54.51;98978.59;7700614;32;40015;-85
2023/03/06 11:41:01;;;;;;;19.33;11.18;;;;;;;7.06;54.32;98968.84;7709788;32;37848;-87
2023/03/06 11:45:42;;;;;;;20.75;10.65;;;;;;;7.06;55.50;98968.84;7709602;32;37918;-87
2023/03/06 11:50:18;;;;;;;19.37;10.05;;;;;;;7.39;54.74;98953.16;7710114;32;39318;-84
2023/03/06 11:54:35;;;;;;;21.65;10.70;;;;;;;7.28;55.00;98954.25;7708931;32;39881;-85
2023/03/06 11:59:18;;;;;;;20.88;10.55;;;;;;;7.50;53.45;98946.66;7709425;32;37089;-86
2023/03/06 12:04:23;;;;;;;18.30;8.98;;;;;;;7.27;53.87;98933.63;7710601;32;37896;-86
2023/03/06 12:08:54;;;;;;;21.40;10.40;;;;;;;6.91;56.24;98928.16;7710525;32;39103;-85
2023/03/06 12:13:26;;;;;;;18.02;9.13;;;;;;;6.88;55.30;98920.56;7709656;32;40687;-85
2023/03/06 12:17:59;;;;;;;19.65;10.02;;;;;;;7.26;53.96;98919.25;7710221;32;37957;-84
2023/03/06 12:22:31;;;;;;;15.75;9.13;;;;;;;7.08;54.60;98912.47;7707628;32;37014;-86
2023/03/06 12:26:58;;;;;;;17.27;8.85;;;;;;;7.29;52.82;98907.06;7706923;32;39973;-85
2023/03/06 12:32:07;;;;;;;16.95;8.52;;;;;;;6.97;53.43;98902.72;7707631;32;40128;-86
2023/03/06 12:36:35;;;;;;;18.87;9.40;;;;;;;6.75;53.16;98903.75;7704381;32;38430;-85
2023/03/06 12:41:15;;;;;;;17.75;9.18;;;;;;;6.73;54.29;98892.38;7710681;32;37337;-83
2023/03/06 12:45:37;;;;;;;18.58;9.07;;;;;;;6.95;53.49;98891.31;7709752;32;39884;-82
2023/03/06 12:50:12;;;;;;;19.33;8.98;;;;;;;7.04;52.84;98892.41;7711667;32;39846;-82
2023/03/06 12:54:32;;;;;;;17.50;8.50;;;;;;;7.14;51.90;98889.72;7709061;32;37898;-83
2023/03/06 12:58:51;;;;;;;18.17;9.18;;;;;;;6.61;52.98;98875.56;7709061;32;37213;-82
2023/03/06 13:03:21;;;;;;;17.58;9.73;;;;;;;6.90;52.76;98880.50;7712793;32;40770;-85
2023/03/06 13:07:39;;;;;;;19.45;9.18;;;;;;;6.92;52.61;98872.91;7712910;32;39825;-86
2023/03/06 13:12:07;;;;;;;17.40;9.63;;;;;;;6.65;53.10;98871.22;7711891;32;37788;-82
2023/03/06 13:16:31;;;;;;;17.00;8.45;;;;;;;6.68;52.75;98862.56;7700958;32;38010;-83
2023/03/06 13:20:49;;;;;;;20.75;8.98;;;;;;;6.80;52.66;98858.81;7712282;32;39205;-84
2023/03/06 13:25:17;;;;;;;16.25;8.48;;;;;;;6.63;52.18;98857.16;7710495;32;39782;-84
2023/03/06 13:29:35;;;;;;;20.17;9.70;;;;;;;6.79;53.00;98857.19;7711990;32;37818;-85
2023/03/06 13:33:58;;;;;;;19.33;9.07;;;;;;;7.03;51.79;98855.56;7731349;32;37936;-84
2023/03/06 13:38:52;;;;;;;16.77;8.60;;;;;;;6.94;52.09;98844.44;7739374;32;39370;-84
2023/03/06 13:43:08;;;;;;;19.75;8.13;;;;;;;6.00;53.93;98849.13;7738429;32;40043;-85
2023/03/06 13:47:52;;;;;;;18.15;9.32;;;;;;;6.90;52.29;98850.69;7737847;32;37776;-85
2023/03/06 13:52:35;;;;;;;18.62;8.60;;;;;;;6.85;52.19;98851.50;7738330;32;37441;-86
2023/03/06 13:57:01;;;;;;;16.05;8.35;;;;;;;6.90;52.56;98845.28;7739071;32;40442;-84
2023/03/06 14:01:40;;;;;;;16.12;8.93;;;;;;;6.74;52.76;98842.56;7738721;32;41270;-84
2023/03/06 14:05:57;;;;;;;13.43;8.30;;;;;;;6.83;52.45;98834.69;7737807;32;38027;-84
2023/03/06 14:10:14;;;;;;;18.08;9.00;;;;;;;6.73;52.56;98830.06;7738825;32;37089;-84
2023/03/06 14:14:56;;;;;;;18.77;8.85;;;;;;;6.75;53.05;98821.69;7738962;32;39063;-84
2023/03/06 14:19:18;;;;;;;17.20;8.85;;;;;;;6.82;52.73;98822.22;7737686;32;39966;-85
2023/03/06 14:23:41;;;;;;;17.35;9.23;;;;;;;7.06;52.04;98822.50;7738715;32;38644;-86
2023/03/06 14:27:57;;;;;;;17.42;8.93;;;;;;;6.80;52.77;98818.19;7738892;32;37822;-85
2023/03/06 14:32:29;;;;;;;19.98;9.70;;;;;;;6.98;52.20;98806.78;7738818;32;40154;-85
2023/03/06 14:36:50;;;;;;;20.80;9.27;;;;;;;6.79;52.79;98808.41;7737370;32;41180;-83
2023/03/06 14:41:06;;;;;;;19.30;9.38;;;;;;;7.01;52.23;98798.09;7738433;32;37841;-84
2023/03/06 14:45:27;;;;;;;22.30;10.60;;;;;;;7.01;52.46;98798.09;7738619;32;37211;-85
2023/03/06 14:49:44;;;;;;;17.33;9.32;;;;;;;6.99;52.50;98791.34;7738352;32;40323;-85
2023/03/06 14:54:01;;;;;;;18.77;10.02;;;;;;;7.19;51.98;98799.41;7738320;32;40693;-85
2023/03/06 14:58:45;;;;;;;17.85;8.88;;;;;;;7.18;51.62;98794.31;7736366;32;38522;-84
2023/03/06 15:03:04;;;;;;;16.50;8.57;;;;;;;7.14;51.89;98799.47;7738393;32;36980;-84
2023/03/06 15:07:29;;;;;;;17.30;9.25;;;;;;;7.13;51.94;98793.19;7738214;32;39414;-85
2023/03/06 15:11:55;;;;;;;17.37;8.52;;;;;;;6.97;52.50;98794.31;7738109;32;41206;-84
2023/03/06 15:16:13;;;;;;;20.12;8.77;;;;;;;6.98;52.69;98797.84;7737976;32;37721;-85
2023/03/06 15:20:35;;;;;;;17.90;8.55;;;;;;;6.83;52.97;98791.34;7737923;32;36895;-85
2023/03/06 15:24:52;;;;;;;18.33;8.80;;;;;;;6.81;52.79;98788.06;7738032;32;39357;-84
2023/03/06 15:29:09;;;;;;;22.15;9.35;;;;;;;6.80;52.61;98785.66;7737944;32;41735;-85
2023/03/06 15:33:26;;;;;;;21.65;9.55;;;;;;;6.71;52.72;98783.50;7737770;32;37654;-84
2023/03/06 15:37:42;;;;;;;19.02;10.02;;;;;;;6.55;53.57;98785.38;7737847;32;37136;-84
2023/03/06 15:42:06;;;;;;;22.02;9.55;;;;;;;6.81;52.74;98781.84;7737911;32;39111;-85
2023/03/06 15:46:22;;;;;;;16.67;8.10;;;;;;;6.95;52.72;98774.78;7737725;32;39929;-86
2023/03/06 15:50:40;;;;;;;18.08;8.77;;;;;;;6.84;53.12;98779.41;7732584;32;36766;-84
2023/03/06 15:54:56;;;;;;;12.37;7.45;;;;;;;6.83;53.73;98785.94;7710236;32;37171;-83
2023/03/06 15:59:22;;;;;;;15.50;7.82;;;;;;;6.88;53.97;98787.81;7710686;32;39076;-84
2023/03/06 16:03:38;;;;;;;;;;;;;;;6.53;54.78;98790.25;7708948;32;40236;-85
2023/03/06 16:07:54;;;;;;;16.75;7.22;;;;;;;6.58;54.36;98794.84;7709294;32;38984;-84
2023/03/06 16:12:16;;;;;;;13.23;7.78;;;;;;;6.57;54.86;98793.22;7710275;32;38196;-85
2023/03/06 16:16:38;;;;;;;14.90;7.97;;;;;;;6.51;55.00;98797.03;7710397;32;39480;-85
2023/03/06 16:20:54;;;;;;;16.12;7.80;;;;;;;6.41;55.24;98788.87;7710048;32;40060;-83
2023/03/06 16:25:11;;;;;;;14.48;8.02;;;;;;;6.59;54.79;98791.06;7710001;32;37875;-85
2023/03/06 16:29:29;;;;;;;14.48;7.97;;;;;;;6.71;54.26;98786.19;7710006;32;37088;-84
2023/03/06 16:33:45;;;;;;;16.05;7.18;;;;;;;6.27;55.54;98792.09;7709774;32;39276;-85
2023/03/06 16:38:01;;;;;;;15.70;8.07;;;;;;;6.55;54.63;98793.50;7708716;32;41142;-84
2023/03/06 16:42:17;;;;;;;16.70;8.98;;;;;;;6.35;55.05;98801.59;7708585;32;37615;-83
2023/03/06 16:46:36;;;;;;;16.10;8.18;;;;;;;6.37;55.16;98800.25;7708021;32;36941;-84
2023/03/06 16:50:52;;;;;;;17.85;8.32;;;;;;;6.46;54.78;98802.44;7699864;32;38351;-84
2023/03/06 16:55:08;;;;;;;17.58;7.90;;;;;;;6.33;55.19;98801.88;7708051;32;40077;-84
2023/03/06 16:59:26;;;;;;;16.65;8.00;;;;;;;6.23;55.74;98798.31;7707338;32;36845;-85
2023/03/06 17:03:43;;;;;;;21.70;10.45;;;;;;;6.19;55.64;98798.03;7708126;32;37829;-84
2023/03/06 17:08:00;;;;;;;28.27;15.68;;;;;;;6.49;54.86;98789.16;7708990;32;39270;-84
2023/03/06 17:12:16;;;;;;;19.83;9.57;;;;;;;6.27;55.69;98780.47;7707814;32;39950;-84
2023/03/06 17:16:33;;;;;;;18.85;9.43;;;;;;;6.24;55.67;98773.69;7708702;32;38013;-84
2023/03/06 17:20:50;;;;;;;43.25;19.25;;;;;;;6.24;55.38;98784.50;7708770;32;37086;-84
2023/03/06 17:25:07;;;;;;;27.45;14.13;;;;;;;6.20;55.54;98783.44;7711030;32;40008;-85
2023/03/06 17:29:24;;;;;;;18.33;9.50;;;;;;;6.10;55.81;98788.81;7711739;32;40790;-85
2023/03/06 17:33:42;;;;;;;20.30;10.27;;;;;;;6.32;55.16;98786.69;7711000;32;38210;-87
2023/03/06 17:37:59;;;;;;;23.67;11.48;;;;;;;6.19;55.23;98784.50;7712022;32;38152;-86
2023/03/06 17:42:15;;;;;;;18.62;9.30;;;;;;;6.27;55.23;98778.56;7711032;32;39294;-86
2023/03/06 17:46:33;;;;;;;18.58;9.60;;;;;;;6.28;55.09;98784.78;7711199;32;39988;-84
2023/03/06 17:50:54;;;;;;;17.45;8.68;;;;;;;5.73;56.46;98781.66;7710789;32;37588;-84
2023/03/06 17:55:10;;;;;;;17.27;9.63;;;;;;;5.94;56.46;98764.41;7711361;32;36719;-85
2023/03/06 17:59:32;;;;;;;24.75;13.15;;;;;;;5.93;56.23;98780.87;7711607;32;40223;-84
2023/03/06 18:03:49;;;;;;;18.10;10.05;;;;;;;5.90;56.71;98757.91;7710944;32;40907;-84
2023/03/06 18:08:07;;;;;;;20.08;9.85;;;;;;;5.59;57.61;98779.44;7711491;32;37900;-84
2023/03/06 18:12:23;;;;;;;18.35;9.18;;;;;;;5.89;56.75;98769.78;7709397;32;38283;-84
2023/03/06 18:16:39;;;;;;;18.23;10.07;;;;;;;6.08;56.09;98783.66;7711809;32;39935;-83
2023/03/06 18:20:56;;;;;;;23.45;11.23;;;;;;;5.82;56.77;98782.75;7710900;32;39938;-84
2023/03/06 18:25:12;;;;;;;21.12;9.80;;;;;;;5.88;56.73;98779.00;7711043;32;38662;-83
2023/03/06 18:29:28;;;;;;;23.33;10.32;;;;;;;5.84;56.97;98773.28;7710553;32;37998;-84
2023/03/06 18:33:47;;;;;;;23.67;11.40;;;;;;;5.89;56.54;98766.28;7708590;32;39300;-82
2023/03/06 18:38:03;;;;;;;24.92;11.68;;;;;;;5.81;57.03;98764.88;7710252;32;40737;-83
2023/03/06 18:42:21;;;;;;;31.35;17.23;;;;;;;5.93;56.32;98756.53;7710654;32;38105;-83
2023/03/06 18:46:38;;;;;;;25.50;13.40;;;;;;;5.55;57.32;98766.69;7710161;32;35093;-83
2023/03/06 18:50:54;;;;;;;25.98;12.00;;;;;;;5.74;56.58;98759.72;7710916;32;39324;-84
2023/03/06 18:55:11;;;;;;;176.87;51.17;;;;;;;5.77;56.38;98756.50;7712554;32;40023;-84
2023/03/06 18:59:27;;;;;;;56.50;25.23;;;;;;;5.67;56.49;98755.66;7708744;32;38597;-83
2023/03/06 19:03:43;;;;;;;37.75;18.17;;;;;;;5.61;56.43;98749.41;7709547;32;38232;-84
2023/03/06 19:07:59;;;;;;;22.50;12.10;;;;;;;5.62;56.29;98759.13;7709903;32;39146;-83
2023/03/06 19:12:16;;;;;;;22.73;11.48;;;;;;;5.36;57.12;98766.31;7710632;32;40618;-83
2023/03/06 19:16:32;;;;;;;17.33;9.65;;;;;;;5.56;56.44;98758.31;7710479;32;38676;-85
2023/03/06 19:20:48;;;;;;;17.12;9.43;;;;;;;5.05;57.87;98769.69;7710489;32;36762;-84
2023/03/06 19:25:06;;;;;;;18.05;9.10;;;;;;;5.44;56.76;98760.44;7710205;32;39343;-84
2023/03/06 19:29:22;;;;;;;17.02;9.52;;;;;;;5.44;56.54;98761.22;7707319;32;40830;-84
2023/03/06 19:33:40;;;;;;;18.27;9.38;;;;;;;5.21;57.12;98756.25;7691334;32;38650;-84
2023/03/06 19:37:56;;;;;;;18.15;9.35;;;;;;;5.18;57.33;98746.78;7683775;32;37913;-82
2023/03/06 19:42:12;;;;;;;19.73;10.00;;;;;;;5.14;57.35;98751.09;7683644;32;40114;-84
2023/03/06 19:46:30;;;;;;;18.95;9.48;;;;;;;4.90;58.04;98745.28;7685819;32;39871;-82
2023/03/06 19:50:46;;;;;;;16.92;9.07;;;;;;;5.11;57.48;98748.91;7710073;32;37961;-84
2023/03/06 19:55:03;;;;;;;21.25;10.20;;;;;;;4.87;58.06;98745.78;7708885;32;37283;-84
2023/03/06 19:59:19;;;;;;;18.77;9.68;;;;;;;4.93;57.87;98738.53;7709444;32;39360;-85
2023/03/06 20:03:35;;;;;;;16.27;8.05;;;;;;;4.80;57.87;98750.59;7708699;32;39704;-85
2023/03/06 20:07:51;;;;;;;18.25;10.10;;;;;;;4.73;57.98;98758.91;7706595;32;38421;-83
2023/03/06 20:12:08;;;;;;;18.12;9.68;;;;;;;4.78;57.49;98763.56;7708734;32;37609;-85
2023/03/06 20:16:26;;;;;;;21.95;11.27;;;;;;;4.86;57.44;98763.03;7708266;32;39348;-85
2023/03/06 20:20:42;;;;;;;22.30;10.65;;;;;;;4.91;57.72;98756.88;7706907;32;39978;-84